createdAt,value
2023-04-30T05:12:58.076Z,12.52
2023-04-30T05:21:09.194Z,13.82
2023-04-30T05:30:35.789Z,13.68
2023-04-30T05:33:03.767Z,14.50
2023-04-30T05:39:38.568Z,17.60
2023-04-30T05:42:06.290Z,15.65
2023-04-30T05:44:33.847Z,16.10
2023-04-30T05:51:43.317Z,16.17
2023-04-30T05:54:10.905Z,17.48
2023-04-30T05:56:38.467Z,16.73
2023-04-30T05:59:05.989Z,17.38
2023-04-30T06:01:33.960Z,18.15
2023-04-30T06:04:01.488Z,17.88
2023-04-30T06:06:28.999Z,19.08
2023-04-30T06:08:56.529Z,19.73
2023-04-30T06:11:25.869Z,19.13
2023-04-30T06:13:54.301Z,18.92
2023-04-30T06:16:23.671Z,19.70
2023-04-30T06:18:53.498Z,19.52
2023-04-30T06:21:21.432Z,19.92
2023-04-30T06:23:48.919Z,18.30
2023-04-30T06:26:16.408Z,21.15
2023-04-30T06:28:43.858Z,21.00
2023-04-30T06:31:11.456Z,21.30
2023-04-30T06:33:38.931Z,18.83
2023-04-30T06:36:06.873Z,21.38
2023-04-30T06:38:34.357Z,21.70
2023-04-30T06:41:02.117Z,20.27
2023-04-30T06:43:29.606Z,20.48
2023-04-30T06:45:57.103Z,20.20
2023-04-30T06:48:24.830Z,19.75
2023-04-30T06:50:52.731Z,20.45
2023-04-30T06:53:20.176Z,19.98
2023-04-30T06:55:48.454Z,19.90
2023-04-30T06:58:16.073Z,18.63
2023-04-30T07:00:43.789Z,19.33
2023-04-30T07:03:11.467Z,19.70
2023-04-30T07:05:38.980Z,19.42
2023-04-30T07:08:07.570Z,19.25
2023-04-30T07:10:35.120Z,19.90
2023-04-30T07:13:02.602Z,20.52
2023-04-30T07:15:30.052Z,19.15
2023-04-30T07:17:58.062Z,18.95
2023-04-30T07:20:26.033Z,18.27
2023-04-30T07:22:54.656Z,19.08
2023-04-30T07:25:22.213Z,18.83
2023-04-30T07:27:51.733Z,19.42
2023-04-30T07:30:19.210Z,17.80
2023-04-30T07:32:47.902Z,17.20
2023-04-30T07:35:15.728Z,15.93
2023-04-30T07:37:44.012Z,18.05
2023-04-30T07:40:15.270Z,17.88
2023-04-30T07:42:47.691Z,16.70
2023-04-30T07:45:15.263Z,16.58
2023-04-30T07:47:42.850Z,16.83
2023-04-30T07:50:12.473Z,16.88
2023-04-30T07:52:39.914Z,16.03
2023-04-30T07:55:08.227Z,16.13
2023-04-30T07:57:36.316Z,15.43
2023-04-30T08:00:04.424Z,15.70
2023-04-30T08:02:32.186Z,15.05
2023-04-30T08:04:59.810Z,15.10
2023-04-30T08:07:27.224Z,13.68
2023-04-30T08:09:54.887Z,14.65
2023-04-30T08:12:22.450Z,13.95
2023-04-30T08:14:49.913Z,13.75
2023-04-30T08:17:17.402Z,14.85
2023-04-30T08:19:45.987Z,12.82
2023-04-30T08:22:13.474Z,13.38
2023-04-30T08:24:41.000Z,12.85
2023-04-30T08:27:08.524Z,13.00
2023-04-30T08:29:36.004Z,12.95
2023-04-30T08:32:05.814Z,12.07
2023-04-30T08:34:33.565Z,12.95
2023-04-30T08:37:01.661Z,11.98
2023-04-30T08:39:29.130Z,11.60
2023-04-30T08:42:00.907Z,11.10
2023-04-30T08:44:29.361Z,11.55
2023-04-30T08:47:00.788Z,11.50
2023-04-30T08:49:32.947Z,10.63
2023-04-30T08:52:01.329Z,10.43
2023-04-30T08:54:34.625Z,11.35
2023-04-30T08:57:02.752Z,10.32
2023-04-30T08:59:30.564Z,11.40
2023-04-30T09:02:00.086Z,9.98
2023-04-30T09:04:28.086Z,10.20
2023-04-30T09:07:04.553Z,11.13
2023-04-30T09:09:39.363Z,10.70
2023-04-30T09:12:20.036Z,9.95
2023-04-30T09:15:06.574Z,9.23
2023-04-30T09:17:36.102Z,9.88
2023-04-30T09:20:14.808Z,9.00
2023-04-30T09:22:43.232Z,9.27
2023-04-30T09:25:14.059Z,9.25
2023-04-30T09:27:41.537Z,9.02
2023-04-30T09:30:30.052Z,9.18
2023-04-30T09:32:57.495Z,8.32
2023-04-30T09:35:40.435Z,9.15
2023-04-30T09:38:08.211Z,8.10
2023-04-30T09:40:42.118Z,8.95
2023-04-30T09:43:09.827Z,8.77
2023-04-30T09:45:52.757Z,9.27
2023-04-30T09:48:24.597Z,9.45
2023-04-30T09:50:52.699Z,8.88
2023-04-30T09:53:21.030Z,8.82
2023-04-30T09:55:51.872Z,8.05
2023-04-30T09:58:20.478Z,8.52
2023-04-30T10:00:50.679Z,7.22
2023-04-30T10:03:19.258Z,7.85
2023-04-30T10:05:50.180Z,7.45
2023-04-30T10:08:46.922Z,7.28
2023-04-30T10:11:21.996Z,7.00
2023-04-30T10:14:11.894Z,6.50
2023-04-30T10:17:14.945Z,7.00
2023-04-30T10:19:49.898Z,6.35
2023-04-30T10:22:18.335Z,7.07
2023-04-30T10:24:47.539Z,6.07
2023-04-30T10:27:15.248Z,6.55
2023-04-30T10:29:44.428Z,5.95
2023-04-30T10:32:14.129Z,6.70
2023-04-30T10:35:21.191Z,5.88
2023-04-30T10:38:13.110Z,6.15
2023-04-30T10:40:40.696Z,5.43
2023-04-30T10:43:11.126Z,5.65
2023-04-30T10:48:11.800Z,5.20
2023-04-30T10:50:46.720Z,5.70
2023-04-30T10:53:21.031Z,5.45
2023-04-30T10:56:09.337Z,5.28
2023-04-30T10:58:40.585Z,3.88
2023-04-30T11:01:15.576Z,4.28
2023-04-30T11:04:08.865Z,4.35
2023-04-30T11:07:07.318Z,3.80
2023-04-30T11:09:39.544Z,4.00
2023-04-30T11:12:33.461Z,4.30
2023-04-30T11:15:15.869Z,4.45
2023-04-30T11:17:48.108Z,4.15
2023-04-30T11:20:23.582Z,3.83
2023-04-30T11:23:32.269Z,3.60
2023-04-30T11:26:08.240Z,4.78
2023-04-30T11:28:38.555Z,4.00
2023-04-30T11:31:06.495Z,3.78
2023-04-30T11:33:35.688Z,4.28
2023-04-30T11:36:03.910Z,4.07
2023-04-30T11:38:37.085Z,4.18
2023-04-30T11:41:05.654Z,4.60
2023-04-30T11:43:35.126Z,4.25
2023-04-30T11:46:13.338Z,3.75
2023-04-30T11:48:45.561Z,3.75
2023-04-30T11:51:25.107Z,4.03
2023-04-30T11:53:53.834Z,3.80
2023-04-30T11:56:26.241Z,3.90
2023-04-30T11:58:55.870Z,3.25
2023-04-30T12:01:30.994Z,3.03
2023-04-30T12:03:58.865Z,3.17
2023-04-30T12:06:29.366Z,2.92
2023-04-30T12:11:35.064Z,3.13
2023-04-30T12:14:10.738Z,3.20
2023-04-30T12:16:50.617Z,2.80
2023-04-30T12:19:25.444Z,2.63
2023-04-30T12:21:55.190Z,2.63
2023-04-30T12:24:27.172Z,2.13
2023-04-30T12:26:54.847Z,2.13
2023-04-30T12:29:25.080Z,2.28
2023-04-30T12:31:54.067Z,1.65
2023-04-30T12:34:22.097Z,1.70
2023-04-30T12:36:50.095Z,2.20
2023-04-30T12:39:17.843Z,2.78
2023-04-30T12:41:49.779Z,2.05
2023-04-30T12:44:28.396Z,2.63
2023-04-30T12:47:00.723Z,2.42
2023-04-30T12:49:36.792Z,2.25
2023-04-30T12:52:14.422Z,2.17
2023-04-30T12:54:42.035Z,2.00
2023-04-30T12:57:13.162Z,1.90
2023-04-30T13:00:00.512Z,2.08
2023-04-30T13:02:32.311Z,1.40
2023-04-30T13:05:00.096Z,1.95
2023-04-30T13:07:40.831Z,1.45
2023-04-30T13:10:09.813Z,1.42
2023-04-30T13:12:37.228Z,1.92
2023-04-30T13:15:05.684Z,1.88
2023-04-30T13:17:33.587Z,1.60
2023-04-30T13:20:01.079Z,1.60
2023-04-30T13:22:29.762Z,1.35
2023-04-30T13:24:57.886Z,1.60
2023-04-30T13:27:25.398Z,1.60
2023-04-30T13:29:53.841Z,1.55
2023-04-30T13:32:21.611Z,1.85
2023-04-30T13:34:49.356Z,1.55
2023-04-30T13:37:17.014Z,1.70
2023-04-30T13:39:44.517Z,1.30
2023-04-30T13:42:12.089Z,1.40
2023-04-30T13:44:40.506Z,1.77
2023-04-30T13:47:08.417Z,1.70
2023-04-30T13:49:36.403Z,1.45
2023-04-30T13:52:06.958Z,1.38
2023-04-30T13:54:34.443Z,1.65
2023-04-30T13:57:01.963Z,1.77
2023-04-30T13:59:29.661Z,1.52
2023-04-30T14:01:57.411Z,1.88
2023-04-30T14:04:24.924Z,1.52
2023-04-30T14:06:56.594Z,1.70
2023-04-30T14:09:24.540Z,1.52
2023-04-30T14:11:51.964Z,1.52
2023-04-30T14:14:19.367Z,2.03
2023-04-30T14:16:46.856Z,1.70
2023-04-30T14:19:14.464Z,1.88
2023-04-30T14:21:42.179Z,1.50
2023-04-30T14:24:12.629Z,1.85
2023-04-30T14:26:43.489Z,1.80
2023-04-30T14:29:11.142Z,1.50
2023-04-30T14:31:38.847Z,1.58
2023-04-30T14:34:06.330Z,1.80
2023-04-30T14:36:36.291Z,1.58
2023-04-30T14:39:04.812Z,1.70
2023-04-30T14:41:38.373Z,1.80
2023-04-30T14:44:06.280Z,1.55
2023-04-30T14:46:34.918Z,2.05
2023-04-30T14:49:02.561Z,1.70
2023-04-30T14:51:32.039Z,1.80
2023-04-30T14:54:00.632Z,2.00
2023-04-30T14:56:28.246Z,2.00
2023-04-30T14:58:55.772Z,1.80
2023-04-30T15:01:23.597Z,1.80
2023-04-30T15:03:51.247Z,1.77
2023-04-30T15:06:19.463Z,2.00
2023-04-30T15:08:47.102Z,1.77
2023-04-30T15:11:14.938Z,1.98
2023-04-30T15:13:42.415Z,1.60
2023-04-30T15:16:10.033Z,1.80
2023-04-30T15:18:37.580Z,1.70
2023-04-30T15:21:05.402Z,2.00
2023-04-30T15:23:33.767Z,1.60
2023-04-30T15:26:03.857Z,1.60
2023-04-30T15:28:34.749Z,1.83
2023-04-30T15:31:03.197Z,1.60
2023-04-30T15:33:31.580Z,1.52
2023-04-30T15:35:59.733Z,1.95
2023-04-30T15:38:27.603Z,2.15
2023-04-30T15:40:55.029Z,2.00
2023-04-30T15:43:22.447Z,2.25
2023-04-30T15:45:50.127Z,2.00
2023-04-30T15:48:17.609Z,1.83
2023-04-30T15:50:45.053Z,1.77
2023-04-30T15:53:12.619Z,1.70
2023-04-30T15:55:40.548Z,1.75
2023-04-30T15:58:08.108Z,1.63
2023-04-30T16:00:35.700Z,1.92
2023-04-30T16:03:03.260Z,1.70
2023-04-30T16:05:31.607Z,1.92
2023-04-30T16:07:59.859Z,1.73
2023-04-30T16:10:27.775Z,2.20
2023-04-30T16:12:55.266Z,1.63
2023-04-30T16:15:24.373Z,1.60
2023-04-30T16:17:52.215Z,2.10
2023-04-30T16:20:20.595Z,1.85
2023-04-30T16:22:49.730Z,1.83
2023-04-30T16:25:17.348Z,2.08
2023-04-30T16:27:45.215Z,1.70
2023-04-30T16:30:13.720Z,1.95
2023-04-30T16:32:41.882Z,1.75
2023-04-30T16:35:10.048Z,1.95
2023-04-30T16:37:37.501Z,1.58
2023-04-30T16:40:07.705Z,2.42
2023-04-30T16:42:35.568Z,1.83
2023-04-30T16:45:03.714Z,1.83
2023-04-30T16:47:32.056Z,1.60
2023-04-30T16:50:00.669Z,1.98
2023-04-30T16:52:28.815Z,1.80
2023-04-30T16:54:56.238Z,2.00
2023-04-30T16:57:25.320Z,2.38
2023-04-30T16:59:53.326Z,1.77
2023-04-30T17:02:21.266Z,1.98
2023-04-30T17:04:48.832Z,1.90
2023-04-30T17:07:17.567Z,1.90
2023-04-30T17:09:46.081Z,1.88
2023-04-30T17:12:13.569Z,1.98
2023-04-30T17:14:41.018Z,2.28
2023-04-30T17:17:08.546Z,1.88
2023-04-30T17:19:36.058Z,1.58
2023-04-30T17:22:03.674Z,2.00
2023-04-30T17:24:31.187Z,1.63
2023-04-30T17:27:01.026Z,1.75
2023-04-30T17:29:28.634Z,1.83
2023-04-30T17:31:56.466Z,1.70
2023-04-30T17:34:24.145Z,1.83
2023-04-30T17:36:51.633Z,1.77
2023-04-30T17:39:19.549Z,1.75
2023-04-30T17:41:47.442Z,1.70
2023-04-30T17:44:15.989Z,1.63
2023-04-30T17:46:43.932Z,1.80
2023-04-30T17:49:11.370Z,1.70
2023-04-30T17:51:38.840Z,2.25
2023-04-30T17:54:06.325Z,2.42
2023-04-30T17:56:39.626Z,2.20
2023-04-30T17:59:07.692Z,2.13
2023-04-30T18:01:35.237Z,2.00
2023-04-30T18:04:03.921Z,1.77
2023-04-30T18:06:31.515Z,1.83
2023-04-30T18:09:01.450Z,1.90
2023-04-30T18:11:29.233Z,2.03
2023-04-30T18:13:56.688Z,2.17
2023-04-30T18:16:24.267Z,1.80
2023-04-30T18:18:51.786Z,1.98
2023-04-30T18:21:19.464Z,2.30
2023-04-30T18:23:48.156Z,2.03
2023-04-30T18:26:15.685Z,1.90
2023-04-30T18:28:43.170Z,2.10
2023-04-30T18:31:11.799Z,2.03
2023-04-30T18:33:40.075Z,2.42
2023-04-30T18:36:07.724Z,2.25
2023-04-30T18:38:35.534Z,1.70
2023-04-30T18:41:02.997Z,1.73
2023-04-30T18:43:30.690Z,1.70
2023-04-30T18:45:58.840Z,1.92
2023-04-30T18:48:26.361Z,2.00
2023-04-30T18:50:53.819Z,1.60
2023-04-30T18:53:21.299Z,1.75
2023-04-30T18:55:48.705Z,2.20
2023-04-30T18:58:16.141Z,1.67
2023-04-30T19:00:43.791Z,1.70
2023-04-30T19:03:11.385Z,1.80
2023-04-30T19:05:38.901Z,2.35
2023-04-30T19:08:08.008Z,2.20
2023-04-30T19:10:36.458Z,2.40
2023-04-30T19:13:04.239Z,1.92
2023-04-30T19:15:31.752Z,1.92
2023-04-30T19:17:59.379Z,2.40
2023-04-30T19:20:27.012Z,2.35
2023-04-30T19:22:54.452Z,2.30
2023-04-30T19:25:23.549Z,2.15
2023-04-30T19:27:51.601Z,1.90
2023-04-30T19:30:19.107Z,2.42
2023-04-30T19:32:47.064Z,2.33
2023-04-30T19:35:15.486Z,2.20
2023-04-30T19:37:43.033Z,2.65
2023-04-30T19:40:12.079Z,2.20
2023-04-30T19:42:40.231Z,2.58
2023-04-30T19:45:09.895Z,2.72
2023-04-30T19:47:38.274Z,2.33
2023-04-30T19:50:07.318Z,3.00
2023-04-30T19:52:34.821Z,2.92
2023-04-30T19:55:02.422Z,2.90
2023-04-30T19:57:34.943Z,2.20
2023-04-30T20:00:04.578Z,2.30
2023-04-30T20:03:23.993Z,2.53
2023-04-30T20:05:52.479Z,2.75
2023-04-30T20:08:20.117Z,2.65
2023-04-30T20:10:49.165Z,2.75
2023-04-30T20:13:17.937Z,2.78
2023-04-30T20:15:45.593Z,3.00
2023-04-30T20:18:13.176Z,2.70
2023-04-30T20:20:40.618Z,2.47
2023-04-30T20:23:17.838Z,2.60
2023-04-30T20:25:46.792Z,2.88
2023-04-30T20:28:18.429Z,2.90
2023-04-30T20:30:48.198Z,2.35
2023-04-30T20:33:16.160Z,2.88
2023-04-30T20:35:46.247Z,2.95
2023-04-30T20:38:17.264Z,2.80
2023-04-30T20:40:46.496Z,2.38
2023-04-30T20:43:14.197Z,2.65
2023-04-30T20:45:43.837Z,2.85
2023-04-30T20:48:11.462Z,2.77
2023-04-30T20:50:39.136Z,2.75
2023-04-30T20:53:08.347Z,2.72
2023-04-30T20:58:04.567Z,3.15
2023-04-30T21:00:32.075Z,3.10
2023-04-30T21:02:59.765Z,3.58
2023-04-30T21:05:30.228Z,3.40
2023-04-30T21:08:02.204Z,3.63
2023-04-30T21:10:36.556Z,3.33
2023-04-30T21:13:06.092Z,3.72
2023-04-30T21:15:36.408Z,3.58
2023-04-30T21:18:04.312Z,3.58
2023-04-30T21:20:32.171Z,3.63
2023-04-30T21:22:59.797Z,3.30
2023-04-30T21:25:27.388Z,3.38
2023-04-30T21:27:55.412Z,3.58
2023-04-30T21:30:25.640Z,2.70
2023-04-30T21:35:30.406Z,3.20
2023-04-30T21:37:57.999Z,3.53
2023-04-30T21:40:25.763Z,3.28
2023-04-30T21:42:53.359Z,3.05
2023-04-30T21:45:20.989Z,3.40
2023-04-30T21:47:48.868Z,3.45
2023-04-30T21:50:17.099Z,2.53
2023-04-30T21:52:44.683Z,2.90
2023-04-30T21:55:12.480Z,3.20
2023-04-30T21:57:39.932Z,2.97
2023-04-30T22:00:14.477Z,2.90
2023-04-30T22:02:42.623Z,3.45
2023-04-30T22:05:13.044Z,2.97
2023-04-30T22:07:41.334Z,3.50
2023-04-30T22:10:10.724Z,2.80
2023-04-30T22:12:38.726Z,2.80
2023-04-30T22:15:08.271Z,3.03
2023-04-30T22:17:35.793Z,3.00
2023-04-30T22:20:06.903Z,3.33
2023-04-30T22:22:34.892Z,3.35
2023-04-30T22:25:02.964Z,2.80
2023-04-30T22:27:31.520Z,2.95
2023-04-30T22:29:59.193Z,3.15
2023-04-30T22:32:26.713Z,2.75
2023-04-30T22:34:54.335Z,3.28
2023-04-30T22:37:21.892Z,3.30
2023-04-30T22:39:49.682Z,2.90
2023-04-30T22:42:17.205Z,2.90
2023-04-30T22:44:45.501Z,3.40
2023-04-30T22:47:13.324Z,3.38
2023-04-30T22:49:41.283Z,2.55
2023-04-30T22:52:09.027Z,3.08
2023-04-30T22:54:36.709Z,2.83
2023-04-30T22:57:04.260Z,2.92
2023-04-30T22:59:31.850Z,3.50
2023-04-30T23:01:59.671Z,3.13
2023-04-30T23:04:28.499Z,3.08
2023-04-30T23:06:56.709Z,3.30
2023-04-30T23:09:24.870Z,2.83
2023-04-30T23:11:52.348Z,2.88
2023-04-30T23:14:20.021Z,3.20
2023-04-30T23:16:47.550Z,3.13
2023-04-30T23:19:15.041Z,3.05
2023-04-30T23:21:42.663Z,2.67
2023-04-30T23:24:11.256Z,3.85
2023-04-30T23:26:38.924Z,3.55
2023-04-30T23:29:06.369Z,3.30
2023-04-30T23:31:33.844Z,3.20
2023-04-30T23:34:01.431Z,3.35
2023-04-30T23:36:28.966Z,3.42
2023-04-30T23:38:56.735Z,4.15
